Terminal Aerodrome Forecast
Issued by NWS

Home | Current Version | Previous Version | Text Only | Print | Product List | Glossary Off
Versions: 1 2 3 4 5 6 7 8 9 10 11 12 13 14 15 16 17

486
FTUS43 KMPX 190520
TAFRWF
TAF
KRWF 190520Z 1906/2006 VRB03KT 6SM BR SKC
     FM190700 VRB02KT 3SM BR SKC
     FM190800 00000KT 1/4SM FG VV002
     FM191300 22003KT 3SM BR FEW003
     FM191400 21005KT P6SM SKC
     FM191900 17009KT P6SM SKC
     FM200100 16006KT P6SM SKC=

USA.gov is the U.S. government's official web portal to all federal, state and local government web resources and services.